Pagina principale
METAR-TAF:

METAR-TAF

Aeroporti :

Aeroporto di Roma-Urbe

Roma, Italia

latitudine: 41-57N, longitudine: 012-30E, altezza: 18 m

Osservazione

Il bollettino è stato emesso 1 ora e 10 minuti fa, alle 15:50 UTC
Vento 8 kt da nord/nord-est, variando fra nord e est/nord-est
Temperature 21°C
Umidità 40%
Pressione 1016 hPa
Visibilità 10 km o più
nessuna nube inferiore a 1500 m e nessun cumulonembo

METAR: LIRU 231550Z 03008KT 360V060 CAVOK 21/07 Q1016

Ora: 19:00 (17:00 UTC)

Previsione

Il bollettino è stato emesso 3 ore e 0 minuti fa, alle 14:00 UTC
Previsione valida dal 23 alle 15 UTC al 23 alle 24 UTC
Vento 12 kt da nord/nord-est
Visibilità 10 km o più
nessuna nube inferiore a 1500 m e nessun cumulonembo

TAF: LIRU 231400Z 2315/2324 03012KT CAVOK

Osservazioni e previsioni meteorologiche di più di 4000 aeroporti (messaggi METAR e TAF).

Le stazioni disponibili sono rappresentate dai dischi gialli e rossi sulla carta.

Puntare il mouse per vedere il nome della stazione.

Clicca sopra per visualizzare le osservazioni e previsioni meteorologiche.

Per cambiare la mappa : fare clic sui pulsanti verdi con una croce nera per ingrandire, il pulsante verde con un trattino per diminuire, o sulla freccia verde per le mappe adiacenti.


METAR-TAF: